Time;durP1;ratioP1;P1;durP2;ratioP2;P2;SDS_P1;SDS_P2;PMS_P1;PMS_P2;Temp;Humidity;BMP_temperature;BMP_pressure;BME280_temperature;BME280_humidity;BME280_pressure;Samples;Min_cycle;Max_cycle;Signal;HPM_P1;HPM_P2
2022/06/10 00:00:53;;;;;;;10.00;3.13;;;11.80;99.90;;;;;;5044621;28;20037;-80
2022/06/10 00:03:20;;;;;;;11.02;3.28;;;11.70;99.90;;;;;;5036640;28;20049;-85
2022/06/10 00:05:49;;;;;;;8.38;2.92;;;11.60;99.90;;;;;;5045464;28;20095;-81
2022/06/10 00:08:22;;;;;;;9.73;2.92;;;11.60;99.90;;;;;;5021512;28;20498;-80
2022/06/10 00:10:52;;;;;;;9.20;3.20;;;11.50;99.90;;;;;;5033960;28;20098;-80
2022/06/10 00:13:19;;;;;;;9.45;3.38;;;11.50;99.90;;;;;;5038844;28;20099;-80
2022/06/10 00:15:46;;;;;;;13.23;3.42;;;11.40;99.90;;;;;;5041981;28;20056;-80
2022/06/10 00:18:13;;;;;;;11.38;3.25;;;11.40;99.90;;;;;;5034192;28;20072;-83
2022/06/10 00:20:39;;;;;;;12.45;2.97;;;11.30;99.90;;;;;;5043995;28;20037;-80
2022/06/10 00:23:06;;;;;;;9.75;3.20;;;11.30;99.90;;;;;;5023229;28;20049;-80
2022/06/10 00:25:32;;;;;;;13.38;3.95;;;11.30;99.90;;;;;;5040255;28;20045;-80
2022/06/10 00:27:58;;;;;;;10.10;3.15;;;11.30;99.90;;;;;;5042508;28;20045;-82
2022/06/10 00:30:28;;;;;;;9.75;3.05;;;11.30;99.90;;;;;;5036646;28;20128;-81
2022/06/10 00:32:55;;;;;;;7.93;2.90;;;11.30;99.90;;;;;;5042692;28;20102;-80
2022/06/10 00:35:20;;;;;;;7.68;2.75;;;11.30;99.90;;;;;;5043160;28;20049;-81
2022/06/10 00:37:46;;;;;;;15.52;3.72;;;11.20;99.90;;;;;;5047007;28;20056;-84
2022/06/10 00:40:19;;;;;;;12.52;3.13;;;11.20;99.90;;;;;;5043482;28;20475;-81
2022/06/10 00:42:45;;;;;;;12.15;2.90;;;11.20;99.90;;;;;;5041871;28;20087;-80
2022/06/10 00:45:45;;;;;;;8.80;3.20;;;11.10;99.90;;;;;;5048105;28;20038;-80
2022/06/10 00:48:17;;;;;;;9.75;3.13;;;11.10;99.90;;;;;;5025448;28;20465;-80
2022/06/10 00:50:44;;;;;;;10.75;2.95;;;11.00;99.90;;;;;;5035506;28;20057;-81
2022/06/10 00:53:13;;;;;;;11.00;3.00;;;10.90;99.90;;;;;;5041527;28;20055;-80
2022/06/10 00:55:42;;;;;;;7.95;2.95;;;10.90;99.90;;;;;;5043344;28;20057;-81
2022/06/10 00:58:46;;;;;;;8.80;2.88;;;10.80;99.90;;;;;;5044132;28;20117;-80
2022/06/10 01:01:13;;;;;;;9.35;3.40;;;10.80;99.90;;;;;;5043053;28;20037;-80
2022/06/10 01:03:41;;;;;;;10.02;3.15;;;10.80;99.90;;;;;;5041192;28;20506;-80
2022/06/10 01:06:08;;;;;;;9.02;2.90;;;10.80;99.90;;;;;;5044315;28;20052;-81
2022/06/10 01:08:34;;;;;;;13.07;3.25;;;10.80;99.90;;;;;;5042087;28;20055;-80
2022/06/10 01:11:14;;;;;;;9.43;2.88;;;10.70;99.90;;;;;;5045440;28;20051;-81
2022/06/10 01:13:40;;;;;;;13.32;3.03;;;10.80;99.90;;;;;;5040753;28;20044;-80
2022/06/10 01:16:27;;;;;;;9.30;3.00;;;10.80;99.90;;;;;;5038581;28;20450;-80
2022/06/10 01:19:27;;;;;;;9.65;3.15;;;10.70;99.90;;;;;;5035404;28;20041;-83
2022/06/10 01:22:39;;;;;;;12.55;3.60;;;10.60;99.90;;;;;;5035238;28;20042;-80
2022/06/10 01:25:24;;;;;;;8.75;3.13;;;10.60;99.90;;;;;;4992154;28;20487;-80
2022/06/10 01:28:17;;;;;;;15.40;3.40;;;10.50;99.90;;;;;;4990400;28;20407;-80
2022/06/10 01:30:54;;;;;;;8.30;3.25;;;10.40;99.90;;;;;;4903518;29;20134;-80
2022/06/10 01:33:47;;;;;;;11.35;3.22;;;10.40;99.90;;;;;;4883454;29;20123;-80
2022/06/10 01:36:51;;;;;;;8.38;3.35;;;10.40;99.90;;;;;;4891211;29;20056;-81
2022/06/10 01:39:25;;;;;;;11.40;3.10;;;10.40;99.90;;;;;;4814898;29;20500;-80
2022/06/10 01:42:14;;;;;;;10.27;3.17;;;10.30;99.90;;;;;;4817882;29;20062;-80
2022/06/10 01:44:47;;;;;;;14.13;3.90;;;10.30;99.90;;;;;;4836233;29;20050;-80
2022/06/10 01:47:21;;;;;;;11.13;3.20;;;10.30;99.90;;;;;;4804283;29;20058;-80
2022/06/10 01:50:04;;;;;;;7.50;3.00;;;10.40;99.90;;;;;;4838993;29;20065;-80
2022/06/10 01:52:40;;;;;;;16.75;3.30;;;10.40;99.90;;;;;;4834854;29;20049;-80
2022/06/10 01:55:14;;;;;;;12.57;3.40;;;10.40;99.90;;;;;;4866310;29;20099;-80
2022/06/10 01:57:51;;;;;;;15.68;3.55;;;10.40;99.90;;;;;;4891818;29;20060;-81
2022/06/10 02:00:22;;;;;;;14.35;3.38;;;10.30;99.90;;;;;;4903924;29;20056;-81
2022/06/10 02:03:06;;;;;;;12.15;3.58;;;10.20;99.90;;;;;;4907676;29;20138;-80
2022/06/10 02:05:39;;;;;;;10.75;3.58;;;10.20;99.90;;;;;;4902168;29;20509;-80
2022/06/10 02:08:18;;;;;;;12.50;3.35;;;10.20;99.90;;;;;;4935630;28;20513;-80
2022/06/10 02:10:49;;;;;;;13.80;3.80;;;10.10;99.90;;;;;;4957062;28;20061;-80
2022/06/10 02:13:17;;;;;;;;;;;10.10;99.90;;;;;;4984057;28;20062;-80
2022/06/10 02:15:55;;;;;;;12.27;3.80;;;10.10;99.90;;;;;;4993040;28;19976;-83
2022/06/10 02:18:47;;;;;;;17.65;3.97;;;10.00;99.90;;;;;;4983252;28;20082;-81
2022/06/10 02:21:18;;;;;;;12.27;3.65;;;9.90;99.90;;;;;;4996122;28;20053;-80
2022/06/10 02:23:51;;;;;;;11.88;4.15;;;9.90;99.90;;;;;;4993584;28;20125;-80
2022/06/10 02:26:17;;;;;;;14.00;3.67;;;9.80;99.90;;;;;;4993195;28;20109;-84
2022/06/10 02:28:50;;;;;;;9.23;3.67;;;9.80;99.90;;;;;;5002996;28;20077;-80
2022/06/10 02:31:32;;;;;;;14.02;4.03;;;9.80;99.90;;;;;;4993433;28;20046;-80
2022/06/10 02:34:00;;;;;;;12.38;3.90;;;9.80;99.90;;;;;;4995737;28;20050;-80
2022/06/10 02:36:35;;;;;;;13.63;4.07;;;9.80;99.90;;;;;;4957548;28;1087027;-80
2022/06/10 02:39:22;;;;;;;15.80;3.92;;;9.80;99.90;;;;;;5016534;28;20051;-80
2022/06/10 02:42:01;;;;;;;14.20;4.28;;;9.80;99.90;;;;;;5032478;28;20056;-83
2022/06/10 02:44:38;;;;;;;16.27;4.30;;;9.70;99.90;;;;;;5032500;28;20060;-80
2022/06/10 02:47:30;;;;;;;16.15;3.70;;;9.70;99.90;;;;;;5032435;28;20171;-80
2022/06/10 02:49:56;;;;;;;16.17;4.60;;;9.70;99.90;;;;;;5037645;28;20083;-81
2022/06/10 02:52:27;;;;;;;10.95;4.45;;;9.70;99.90;;;;;;5033313;28;20038;-80
2022/06/10 02:54:52;;;;;;;16.13;4.40;;;9.70;99.90;;;;;;5038782;28;20076;-87
2022/06/10 03:01:11;;;;;;;13.85;4.22;;;9.70;99.90;;;;;;5035643;28;20128;-80
2022/06/10 03:03:19;;;;;;;9.43;4.47;;;9.60;99.90;;;;;;5036551;28;19935;-80
2022/06/10 03:06:06;;;;;;;13.45;4.30;;;9.70;99.90;;;;;;5037740;28;20041;-80
2022/06/10 03:08:40;;;;;;;9.75;3.85;;;9.90;99.90;;;;;;5034647;28;20041;-80
2022/06/10 03:11:31;;;;;;;9.35;4.40;;;9.70;99.90;;;;;;5015888;28;20053;-80
2022/06/10 03:14:21;;;;;;;14.82;4.05;;;9.80;99.90;;;;;;5035575;28;20055;-80
2022/06/10 03:17:15;;;;;;;10.32;4.28;;;9.90;99.90;;;;;;5031362;28;20563;-81
2022/06/10 03:19:47;;;;;;;15.18;5.10;;;9.80;99.90;;;;;;5015746;28;20041;-80
2022/06/10 03:22:16;;;;;;;14.07;4.65;;;9.90;99.90;;;;;;5032155;28;20127;-80
2022/06/10 03:25:12;;;;;;;16.38;4.45;;;9.80;99.90;;;;;;5034751;28;20053;-80
2022/06/10 03:28:04;;;;;;;16.40;4.20;;;9.90;99.90;;;;;;5031183;28;20088;-80
2022/06/10 03:30:31;;;;;;;;;;;9.90;99.90;;;;;;5033671;28;20584;-80
2022/06/10 03:33:18;;;;;;;12.15;3.78;;;10.00;99.90;;;;;;5032492;28;19967;-80
2022/06/10 03:35:47;;;;;;;17.08;4.95;;;10.00;99.90;;;;;;5033167;28;20042;-80
2022/06/10 03:38:13;;;;;;;15.48;4.18;;;10.10;99.90;;;;;;5031063;28;20525;-80
2022/06/10 03:40:40;;;;;;;13.68;4.50;;;10.10;99.90;;;;;;5032770;28;20052;-80
2022/06/10 03:43:08;;;;;;;11.65;4.28;;;10.20;99.90;;;;;;5034069;28;20039;-80
2022/06/10 03:45:44;;;;;;;12.45;3.92;;;10.20;99.90;;;;;;5035685;28;20037;-80
2022/06/10 03:48:15;;;;;;;11.27;4.10;;;10.20;99.90;;;;;;5032571;28;20069;-81
2022/06/10 03:50:41;;;;;;;13.00;4.05;;;10.20;99.90;;;;;;5045900;28;20049;-79
2022/06/10 03:53:12;;;;;;;17.73;4.70;;;10.30;99.90;;;;;;5030749;28;20079;-80
2022/06/10 03:55:38;;;;;;;;;;;10.30;99.90;;;;;;5032527;28;20372;-80
2022/06/10 03:58:03;;;;;;;10.15;3.83;;;10.30;99.90;;;;;;5032406;28;19974;-80
2022/06/10 04:00:29;;;;;;;14.13;3.90;;;10.50;99.90;;;;;;5035086;28;20478;-80
2022/06/10 04:02:57;;;;;;;9.00;3.72;;;10.30;99.90;;;;;;5032925;28;20041;-81
2022/06/10 04:05:23;;;;;;;14.68;4.32;;;10.50;99.90;;;;;;5033081;28;20411;-85
2022/06/10 04:07:49;;;;;;;13.57;3.97;;;10.50;99.90;;;;;;5032538;28;20048;-85
2022/06/10 04:10:19;;;;;;;13.88;4.30;;;10.50;99.90;;;;;;5023904;28;20103;-80
2022/06/10 04:12:45;;;;;;;17.00;4.67;;;10.60;99.90;;;;;;5032564;28;20056;-80
2022/06/10 04:15:14;;;;;;;11.27;4.00;;;10.70;99.90;;;;;;5014206;28;20053;-83
2022/06/10 04:17:44;;;;;;;13.57;4.45;;;10.80;99.90;;;;;;5014509;28;20041;-80
2022/06/10 04:20:17;;;;;;;9.65;3.83;;;10.80;99.90;;;;;;5031377;28;20410;-80
2022/06/10 04:22:42;;;;;;;13.40;4.50;;;11.10;99.90;;;;;;5031331;28;20064;-80
2022/06/10 04:25:09;;;;;;;19.27;5.03;;;11.00;99.90;;;;;;5033800;28;20046;-80
2022/06/10 04:27:35;;;;;;;13.07;4.40;;;11.00;99.90;;;;;;5032324;28;20084;-80
2022/06/10 04:30:01;;;;;;;15.70;4.60;;;11.10;99.90;;;;;;5035774;28;20049;-83
2022/06/10 04:32:27;;;;;;;13.93;4.93;;;11.20;99.90;;;;;;5032012;28;20041;-81
2022/06/10 04:34:53;;;;;;;15.15;4.32;;;11.20;99.90;;;;;;5031421;28;20053;-86
2022/06/10 04:37:18;;;;;;;13.68;4.68;;;11.20;99.90;;;;;;5035581;28;20041;-81
2022/06/10 04:39:44;;;;;;;10.68;4.78;;;11.40;99.90;;;;;;5036692;28;20133;-80
2022/06/10 04:42:10;;;;;;;15.30;4.88;;;11.40;99.90;;;;;;5014090;28;20087;-80
2022/06/10 04:44:36;;;;;;;11.20;4.03;;;11.50;99.90;;;;;;5036512;28;20037;-80
2022/06/10 04:47:02;;;;;;;9.80;4.53;;;11.60;99.90;;;;;;5031921;28;20445;-83
2022/06/10 04:49:30;;;;;;;16.45;4.45;;;11.70;99.90;;;;;;5031923;28;20048;-83
2022/06/10 04:51:56;;;;;;;11.35;4.25;;;11.80;99.90;;;;;;5030056;28;20152;-80
2022/06/10 04:54:22;;;;;;;13.73;4.57;;;12.00;99.90;;;;;;5031936;28;20039;-80
2022/06/10 04:56:47;;;;;;;9.80;4.38;;;12.00;99.90;;;;;;5031344;28;20076;-82
2022/06/10 04:59:13;;;;;;;15.57;4.82;;;12.20;99.90;;;;;;5033710;28;20053;-80
2022/06/10 05:01:39;;;;;;;12.20;4.95;;;12.30;99.90;;;;;;5031138;28;20041;-80
2022/06/10 05:04:05;;;;;;;10.00;3.80;;;12.60;99.90;;;;;;5033911;28;20532;-81
2022/06/10 05:06:31;;;;;;;9.20;3.63;;;13.00;99.90;;;;;;5034047;28;20045;-81
2022/06/10 05:08:56;;;;;;;8.00;3.83;;;13.50;99.90;;;;;;5049916;28;20072;-81
2022/06/10 05:11:23;;;;;;;14.75;3.75;;;14.00;99.90;;;;;;5052227;28;20124;-84
2022/06/10 05:13:48;;;;;;;8.75;3.42;;;14.20;99.90;;;;;;5051369;28;20045;-82
2022/06/10 05:16:14;;;;;;;11.15;3.20;;;14.30;99.90;;;;;;5051333;28;20048;-81
2022/06/10 05:18:46;;;;;;;8.85;3.60;;;14.50;99.90;;;;;;5054125;28;20037;-81
2022/06/10 05:21:12;;;;;;;10.35;3.45;;;14.50;99.90;;;;;;5055683;28;20045;-82
2022/06/10 05:23:38;;;;;;;15.95;3.83;;;14.60;99.90;;;;;;5055489;28;20045;-81
2022/06/10 05:26:04;;;;;;;11.43;3.50;;;14.60;99.90;;;;;;5055749;28;20126;-81
2022/06/10 05:28:30;;;;;;;13.25;3.47;;;14.60;99.90;;;;;;5055728;28;20489;-81
2022/06/10 05:30:55;;;;;;;10.70;3.45;;;14.70;99.90;;;;;;5054718;28;20041;-82
2022/06/10 05:33:21;;;;;;;17.23;4.20;;;14.70;99.90;;;;;;5054429;28;20040;-81
2022/06/10 05:35:47;;;;;;;16.92;4.13;;;14.70;99.90;;;;;;5054136;28;20082;-81
2022/06/10 05:38:14;;;;;;;9.68;3.63;;;14.70;99.90;;;;;;5055528;28;21022;-83
2022/06/10 05:40:40;;;;;;;11.35;4.10;;;14.60;99.90;;;;;;5054503;28;20470;-81
2022/06/10 05:43:06;;;;;;;14.38;3.65;;;14.60;99.90;;;;;;5054533;28;20041;-84
2022/06/10 05:45:33;;;;;;;14.23;3.83;;;14.60;99.90;;;;;;5055235;28;20040;-81
2022/06/10 05:48:01;;;;;;;10.35;3.80;;;14.50;99.90;;;;;;5053919;28;20083;-82
2022/06/10 05:50:35;;;;;;;15.48;4.15;;;14.50;99.90;;;;;;5054234;28;20437;-83
2022/06/10 05:53:01;;;;;;;8.82;3.97;;;14.60;99.90;;;;;;5054009;28;20049;-82
2022/06/10 05:55:29;;;;;;;19.27;4.38;;;14.70;99.90;;;;;;5055081;28;20037;-82
2022/06/10 05:57:54;;;;;;;14.93;4.10;;;14.70;99.90;;;;;;5055028;28;20119;-81
2022/06/10 06:00:26;;;;;;;13.38;3.80;;;14.90;99.90;;;;;;5054806;28;20136;-82
2022/06/10 06:02:52;;;;;;;16.55;4.10;;;14.90;99.90;;;;;;5054012;28;20417;-81
2022/06/10 06:05:20;;;;;;;12.10;3.70;;;15.10;99.90;;;;;;5054816;28;20095;-83
2022/06/10 06:07:47;;;;;;;13.30;3.72;;;15.30;99.90;;;;;;5054822;28;20049;-82
2022/06/10 06:10:20;;;;;;;14.90;3.72;;;15.50;99.90;;;;;;5053838;28;20048;-81
2022/06/10 06:12:45;;;;;;;17.13;3.72;;;15.60;99.90;;;;;;5054096;28;20080;-81
2022/06/10 06:15:13;;;;;;;12.38;3.80;;;15.70;99.90;;;;;;5054780;28;20542;-81
2022/06/10 06:17:41;;;;;;;14.88;3.55;;;15.60;99.90;;;;;;5054867;28;20040;-82
2022/06/10 06:20:07;;;;;;;10.00;3.03;;;15.70;99.90;;;;;;5053564;28;20076;-81
2022/06/10 06:22:33;;;;;;;9.05;3.00;;;15.70;99.90;;;;;;5053475;28;20037;-82
2022/06/10 06:24:58;;;;;;;18.42;3.85;;;15.60;99.90;;;;;;5054631;28;20045;-81
2022/06/10 06:27:24;;;;;;;17.38;4.10;;;15.50;99.90;;;;;;5054545;28;20059;-83
2022/06/10 06:29:50;;;;;;;16.95;4.22;;;15.40;99.90;;;;;;5052387;28;20049;-83
2022/06/10 06:32:16;;;;;;;10.38;4.13;;;15.30;99.90;;;;;;5054930;28;20045;-81
2022/06/10 06:34:42;;;;;;;15.75;4.32;;;15.00;99.90;;;;;;5054226;28;20045;-81
2022/06/10 06:37:11;;;;;;;13.75;5.05;;;14.90;99.90;;;;;;5054137;28;20423;-81
2022/06/10 06:39:37;;;;;;;13.65;4.53;;;14.90;99.90;;;;;;5054386;28;20080;-81
2022/06/10 06:42:03;;;;;;;14.57;5.05;;;14.90;99.90;;;;;;5054305;28;20099;-81
2022/06/10 06:44:29;;;;;;;17.15;4.85;;;14.90;99.90;;;;;;5036674;28;20536;-85
2022/06/10 06:46:55;;;;;;;13.57;5.15;;;14.90;99.90;;;;;;5054379;28;20037;-82
2022/06/10 06:49:25;;;;;;;14.00;5.53;;;15.00;99.90;;;;;;5052892;28;20049;-83
2022/06/10 06:51:52;;;;;;;13.87;4.90;;;15.00;99.90;;;;;;5054020;28;20390;-82
2022/06/10 06:54:19;;;;;;;15.25;5.53;;;15.10;99.90;;;;;;5054127;28;20417;-82
2022/06/10 06:56:46;;;;;;;12.88;5.30;;;15.20;99.90;;;;;;5053998;28;20116;-82
2022/06/10 06:59:12;;;;;;;16.80;5.68;;;15.40;99.90;;;;;;5053196;28;20045;-82
2022/06/10 07:01:37;;;;;;;13.00;5.38;;;15.60;99.90;;;;;;5053807;28;20037;-82
2022/06/10 07:04:04;;;;;;;15.25;5.55;;;15.70;99.90;;;;;;5054113;28;20037;-82
2022/06/10 07:06:32;;;;;;;13.93;5.30;;;15.90;99.90;;;;;;5053551;28;20052;-83
2022/06/10 07:08:58;;;;;;;12.88;5.00;;;16.00;99.90;;;;;;5053624;28;20478;-82
2022/06/10 07:11:24;;;;;;;13.13;4.70;;;16.20;99.90;;;;;;5052699;28;20047;-84
2022/06/10 07:13:49;;;;;;;10.70;4.57;;;16.30;99.90;;;;;;5052598;28;20095;-82
2022/06/10 07:16:15;;;;;;;12.20;3.95;;;16.50;99.90;;;;;;5053042;28;20045;-82
2022/06/10 07:18:41;;;;;;;11.98;3.92;;;16.60;99.90;;;;;;5052222;28;20053;-83
2022/06/10 07:21:06;;;;;;;13.13;4.20;;;16.70;99.90;;;;;;5052348;28;20053;-82
2022/06/10 07:23:32;;;;;;;12.50;4.13;;;16.80;99.90;;;;;;5053241;28;20037;-82
2022/06/10 07:25:59;;;;;;;12.25;4.22;;;17.00;99.90;;;;;;5052609;28;20095;-82
2022/06/10 07:28:25;;;;;;;10.80;3.83;;;17.20;99.90;;;;;;5053597;28;20448;-82
2022/06/10 07:30:51;;;;;;;7.35;3.22;;;17.20;99.90;;;;;;5052522;28;20478;-82
2022/06/10 07:33:17;;;;;;;9.50;3.08;;;17.40;99.90;;;;;;5053182;28;20091;-82
2022/06/10 07:35:43;;;;;;;10.48;3.38;;;17.80;99.90;;;;;;5051743;28;20040;-82
2022/06/10 07:38:09;;;;;;;12.18;3.17;;;18.10;99.90;;;;;;5052750;28;20045;-86
2022/06/10 07:43:25;;;;;;;9.77;2.75;;;18.30;99.90;;;;;;5051874;28;20460;-86
2022/06/10 07:45:52;;;;;;;13.35;3.42;;;18.20;99.90;;;;;;5053001;28;20076;-83
2022/06/10 07:48:18;;;;;;;10.18;3.15;;;18.20;99.90;;;;;;5053374;28;20170;-88
2022/06/10 07:50:45;;;;;;;10.00;3.08;;;18.40;99.90;;;;;;5052698;28;20041;-82
2022/06/10 07:53:11;;;;;;;11.27;3.00;;;18.60;99.90;;;;;;5052104;28;20036;-81
2022/06/10 07:55:38;;;;;;;11.75;3.20;;;19.00;99.90;;;;;;5052880;28;20103;-82
2022/06/10 07:58:06;;;;;;;11.85;2.50;;;19.10;99.90;;;;;;5052970;28;20067;-81
2022/06/10 08:00:34;;;;;;;8.00;3.15;;;19.00;99.90;;;;;;5051917;28;20378;-82
2022/06/10 08:03:00;;;;;;;12.30;3.05;;;18.80;99.90;;;;;;5051864;28;20393;-82
2022/06/10 08:05:28;;;;;;;6.03;2.78;;;18.60;99.90;;;;;;5051170;28;20053;-82
2022/06/10 08:07:54;;;;;;;10.15;2.83;;;18.30;99.90;;;;;;5052979;28;20040;-84
2022/06/10 08:10:27;;;;;;;10.15;3.40;;;18.30;99.90;;;;;;5052906;28;20037;-83
2022/06/10 08:12:54;;;;;;;13.30;2.80;;;18.10;99.90;;;;;;5035134;28;20049;-82
2022/06/10 08:15:21;;;;;;;12.30;3.38;;;18.00;99.90;;;;;;5051615;28;20048;-83
2022/06/10 08:17:48;;;;;;;9.00;2.70;;;18.10;99.90;;;;;;5051852;28;20044;-83
2022/06/10 08:20:21;;;;;;;13.68;2.97;;;18.10;99.90;;;;;;5035021;28;20051;-83
2022/06/10 08:22:47;;;;;;;13.75;3.45;;;18.10;99.90;;;;;;5052666;28;20505;-83
2022/06/10 08:25:13;;;;;;;10.98;2.90;;;18.10;99.90;;;;;;5051913;28;20044;-83
2022/06/10 08:27:39;;;;;;;10.15;2.92;;;18.10;99.90;;;;;;5051407;28;20048;-83
2022/06/10 08:30:08;;;;;;;9.18;3.13;;;18.10;99.90;;;;;;5052575;28;20041;-82
2022/06/10 08:32:33;;;;;;;14.98;3.33;;;18.10;99.90;;;;;;5051393;28;20043;-82
2022/06/10 08:34:59;;;;;;;10.00;3.15;;;18.20;99.90;;;;;;5052314;28;20044;-82
2022/06/10 08:37:25;;;;;;;17.05;2.90;;;18.20;99.90;;;;;;5052372;28;20099;-82
2022/06/10 08:39:51;;;;;;;12.48;2.97;;;18.10;99.90;;;;;;5052518;28;20159;-82
2022/06/10 08:42:35;;;;;;;12.05;3.35;;;18.10;99.90;;;;;;5051540;28;20429;-83
2022/06/10 08:45:34;;;;;;;13.55;3.50;;;18.10;99.90;;;;;;5052306;28;20486;-82
2022/06/10 08:48:23;;;;;;;19.50;3.47;;;18.10;99.90;;;;;;5010440;28;20100;-83
2022/06/10 08:50:54;;;;;;;13.52;3.63;;;18.10;99.90;;;;;;5010718;28;20119;-81
2022/06/10 08:53:51;;;;;;;11.40;3.15;;;18.10;99.90;;;;;;4979731;28;20050;-83
2022/06/10 08:56:22;;;;;;;17.92;2.70;;;18.20;99.90;;;;;;5014519;28;20554;-82
2022/06/10 08:59:06;;;;;;;11.63;3.03;;;18.30;99.90;;;;;;5014324;28;20079;-82
2022/06/10 09:02:00;;;;;;;13.20;3.45;;;18.50;99.90;;;;;;5014290;28;20046;-83
2022/06/10 09:04:52;;;;;;;9.40;3.25;;;18.50;99.90;;;;;;4920828;29;20690;-82
2022/06/10 09:07:40;;;;;;;7.80;2.50;;;18.50;99.90;;;;;;4936523;29;20544;-82
2022/06/10 09:10:15;;;;;;;11.35;2.53;;;18.40;99.90;;;;;;4936458;29;20063;-82
2022/06/10 09:13:05;;;;;;;14.48;2.72;;;18.40;99.90;;;;;;4936647;29;20453;-83
2022/06/10 09:15:34;;;;;;;12.57;2.60;;;18.40;99.90;;;;;;4920738;29;20052;-82
2022/06/10 09:18:17;;;;;;;11.23;2.38;;;18.40;99.90;;;;;;4936300;29;20138;-82
2022/06/10 09:20:56;;;;;;;8.75;2.90;;;18.30;99.90;;;;;;4920518;29;20047;-82
2022/06/10 09:23:44;;;;;;;11.70;2.63;;;18.30;99.90;;;;;;4926676;28;20047;-82
2022/06/10 09:26:19;;;;;;;10.05;2.60;;;18.20;99.90;;;;;;4994276;28;20116;-82
2022/06/10 09:28:44;;;;;;;11.15;2.22;;;18.20;99.90;;;;;;4994247;28;20053;-82
2022/06/10 09:31:48;;;;;;;9.45;3.08;;;18.20;99.90;;;;;;4994085;28;20046;-83
2022/06/10 09:34:22;;;;;;;9.25;2.40;;;18.30;99.90;;;;;;4939412;29;20051;-84
2022/06/10 09:36:57;;;;;;;11.77;2.58;;;18.40;99.90;;;;;;4923280;29;20533;-84
2022/06/10 09:42:27;;;;;;;12.65;2.30;;;18.70;99.90;;;;;;5022113;28;20060;-83
2022/06/10 09:45:05;;;;;;;10.07;2.47;;;18.90;99.90;;;;;;5033213;28;20503;-82
2022/06/10 09:47:37;;;;;;;13.63;2.50;;;19.10;99.90;;;;;;5016783;28;20049;-83
2022/06/10 09:50:09;;;;;;;11.15;2.75;;;19.40;99.90;;;;;;5033087;28;20042;-82
2022/06/10 09:53:04;;;;;;;11.85;2.47;;;19.60;99.90;;;;;;5032985;28;20049;-83
2022/06/10 09:55:43;;;;;;;9.80;2.25;;;20.20;99.90;;;;;;4973855;28;20057;-83
2022/06/10 09:58:17;;;;;;;8.68;2.05;;;21.30;99.90;;;;;;4974121;28;20061;-85
2022/06/10 10:00:58;;;;;;;9.00;1.98;;;22.20;99.90;;;;;;4958246;28;20069;-83
2022/06/10 10:03:42;;;;;;;8.20;1.90;;;22.60;99.90;;;;;;4973844;28;20062;-84
2022/06/10 10:06:29;;;;;;;9.13;2.10;;;23.70;99.90;;;;;;4974124;28;20398;-83
2022/06/10 10:09:18;;;;;;;8.25;2.28;;;25.10;99.90;;;;;;4958363;28;20098;-83
2022/06/10 10:12:01;;;;;;;8.18;2.25;;;25.60;99.90;;;;;;4958298;28;20493;-83
2022/06/10 10:14:53;;;;;;;8.10;2.20;;;26.00;93.70;;;;;;4957865;28;20054;-85
2022/06/10 10:17:50;;;;;;;8.73;2.22;;;25.80;95.50;;;;;;4958184;28;20046;-83
2022/06/10 10:20:36;;;;;;;14.25;2.90;;;25.20;99.90;;;;;;4973448;28;20455;-89
2022/06/10 10:23:25;;;;;;;8.20;2.35;;;24.90;99.90;;;;;;4957874;28;20588;-84
2022/06/10 10:25:51;;;;;;;7.13;2.42;;;24.60;99.90;;;;;;4973785;28;20105;-84
2022/06/10 10:28:28;;;;;;;7.22;2.60;;;24.40;99.90;;;;;;4973616;28;20202;-83
2022/06/10 10:31:08;;;;;;;11.95;2.63;;;24.20;99.90;;;;;;4973708;28;20050;-84
2022/06/10 10:33:35;;;;;;;14.55;3.05;;;24.40;99.90;;;;;;5046351;28;20057;-84
2022/06/10 10:36:05;;;;;;;11.05;2.88;;;25.20;99.90;;;;;;5054299;28;20040;-84
2022/06/10 10:38:34;;;;;;;9.32;2.60;;;25.60;98.70;;;;;;5054375;28;20049;-84
2022/06/10 10:41:11;;;;;;;8.93;2.67;;;26.70;93.30;;;;;;5053751;28;20386;-84
2022/06/10 10:43:37;;;;;;;8.02;2.30;;;27.70;81.60;;;;;;5053320;28;20049;-83
2022/06/10 10:46:25;;;;;;;8.40;2.30;;;28.00;78.40;;;;;;5054237;28;20072;-84
2022/06/10 10:48:51;;;;;;;8.98;2.70;;;28.20;77.80;;;;;;5054428;28;20063;-83
2022/06/10 10:51:23;;;;;;;9.32;2.60;;;27.90;75.10;;;;;;5036345;28;20057;-83
2022/06/10 10:53:55;;;;;;;10.82;2.92;;;27.50;77.50;;;;;;5054282;28;20077;-83
2022/06/10 10:56:32;;;;;;;11.60;2.78;;;26.60;83.10;;;;;;5054242;28;20115;-84
2022/06/10 10:58:58;;;;;;;9.65;2.22;;;25.50;94.20;;;;;;5054018;28;20044;-83
2022/06/10 11:01:43;;;;;;;9.73;2.90;;;24.70;99.90;;;;;;5052854;28;20051;-84
2022/06/10 11:04:30;;;;;;;8.25;2.22;;;23.90;99.90;;;;;;5053886;28;20386;-83
2022/06/10 11:07:03;;;;;;;9.13;2.50;;;23.50;99.90;;;;;;5052406;28;20182;-84
2022/06/10 11:09:29;;;;;;;8.65;2.55;;;23.40;99.90;;;;;;5053055;28;20127;-84
2022/06/10 11:11:57;;;;;;;10.40;2.55;;;23.50;99.90;;;;;;5053877;28;20124;-82
2022/06/10 11:14:38;;;;;;;9.35;2.40;;;24.30;99.90;;;;;;5052750;28;20048;-89
2022/06/10 11:17:06;;;;;;;10.20;2.33;;;24.70;97.00;;;;;;5052822;28;20044;-83
2022/06/10 11:19:32;;;;;;;7.00;2.15;;;24.80;96.90;;;;;;5052328;28;20382;-84
2022/06/10 11:22:04;;;;;;;8.77;2.22;;;24.60;97.90;;;;;;5053727;28;20037;-84
2022/06/10 11:24:37;;;;;;;5.80;1.80;;;24.30;98.80;;;;;;5052313;28;20052;-84
2022/06/10 11:27:36;;;;;;;13.20;3.03;;;23.80;99.00;;;;;;5052230;28;20067;-83
2022/06/10 11:30:08;;;;;;;13.05;2.28;;;23.30;99.90;;;;;;5053447;28;20048;-83
2022/06/10 11:32:40;;;;;;;6.68;2.20;;;22.80;99.90;;;;;;5052305;28;20433;-83
2022/06/10 11:35:31;;;;;;;11.02;2.63;;;22.40;99.90;;;;;;5053428;28;20128;-84
2022/06/10 11:38:09;;;;;;;10.35;2.65;;;22.40;99.90;;;;;;5035568;28;20135;-83
2022/06/10 11:40:40;;;;;;;5.88;2.25;;;22.40;99.90;;;;;;5053310;28;20049;-84
2022/06/10 11:43:27;;;;;;;11.55;2.17;;;22.50;99.90;;;;;;5052253;28;20095;-83
2022/06/10 11:46:14;;;;;;;10.13;2.45;;;22.50;99.90;;;;;;5051831;28;20094;-89
2022/06/10 11:48:50;;;;;;;8.02;2.08;;;22.70;99.90;;;;;;5052830;28;20048;-83
2022/06/10 11:51:31;;;;;;;7.10;2.20;;;22.90;99.90;;;;;;5053286;28;20048;-83
2022/06/10 11:54:00;;;;;;;8.43;1.75;;;23.00;99.90;;;;;;5052873;28;20041;-84
2022/06/10 11:59:55;;;;;;;8.38;2.10;;;24.20;99.60;;;;;;5052276;28;20084;-83
2022/06/10 12:02:31;;;;;;;8.20;1.90;;;24.60;93.90;;;;;;5051802;28;20128;-85
2022/06/10 12:05:20;;;;;;;11.55;2.20;;;24.40;96.20;;;;;;5051599;28;20048;-84
2022/06/10 12:08:10;;;;;;;9.30;2.30;;;23.90;97.40;;;;;;5034833;28;20041;-83
2022/06/10 12:10:52;;;;;;;11.67;2.30;;;23.70;97.30;;;;;;5052780;28;20538;-83
2022/06/10 12:13:20;;;;;;;8.55;1.73;;;23.40;99.90;;;;;;5051233;28;20486;-84
2022/06/10 12:15:56;;;;;;;9.85;1.80;;;23.30;99.90;;;;;;5052938;28;20127;-84
2022/06/10 12:18:27;;;;;;;11.68;2.25;;;23.30;99.90;;;;;;5051707;28;20040;-84
2022/06/10 12:20:58;;;;;;;7.75;1.88;;;23.00;99.90;;;;;;5051703;28;20067;-83
2022/06/10 12:23:30;;;;;;;9.48;2.10;;;22.60;99.90;;;;;;5052660;28;20053;-88
2022/06/10 12:26:21;;;;;;;9.60;2.13;;;22.30;99.90;;;;;;5051564;28;20087;-84
2022/06/10 12:29:20;;;;;;;13.65;2.33;;;22.10;99.90;;;;;;5055795;28;20048;-83
2022/06/10 12:32:03;;;;;;;8.15;2.03;;;22.10;99.90;;;;;;5053446;28;20055;-83
2022/06/10 12:34:59;;;;;;;11.20;2.20;;;22.20;99.90;;;;;;5055841;28;20041;-83
2022/06/10 12:37:32;;;;;;;9.70;2.05;;;22.60;99.90;;;;;;5055396;28;20091;-85
2022/06/10 12:40:05;;;;;;;6.43;2.00;;;22.70;99.90;;;;;;5056603;28;20109;-84
2022/06/10 12:42:48;;;;;;;11.73;2.22;;;22.80;99.90;;;;;;5054974;28;20033;-86
2022/06/10 12:45:39;;;;;;;11.15;2.33;;;22.90;99.90;;;;;;5056563;28;20037;-83
2022/06/10 12:48:18;;;;;;;9.55;2.20;;;23.00;99.90;;;;;;5056371;28;20079;-83
2022/06/10 12:50:57;;;;;;;8.82;2.00;;;23.20;99.90;;;;;;5055291;28;20053;-83
2022/06/10 12:53:29;;;;;;;7.57;2.20;;;23.00;99.90;;;;;;5056521;28;20124;-84
2022/06/10 12:55:58;;;;;;;8.95;2.25;;;22.80;99.90;;;;;;5056439;28;20099;-84
2022/06/10 12:58:36;;;;;;;11.40;2.33;;;22.70;99.90;;;;;;5055326;28;20075;-83
2022/06/10 13:01:42;;;;;;;14.23;2.85;;;22.60;99.90;;;;;;5056190;28;20048;-85
2022/06/10 13:04:15;;;;;;;10.40;1.95;;;22.70;99.90;;;;;;5055700;28;20067;-83
2022/06/10 13:06:44;;;;;;;10.30;2.35;;;22.90;99.90;;;;;;5055181;28;20053;-84
2022/06/10 13:09:15;;;;;;;10.93;2.00;;;23.10;99.90;;;;;;5054774;28;20529;-83
2022/06/10 13:11:44;;;;;;;;;;;23.20;99.90;;;;;;5055096;28;20498;-83
2022/06/10 13:14:16;;;;;;;9.20;1.90;;;23.20;99.90;;;;;;5055690;28;19970;-83
2022/06/10 13:16:47;;;;;;;7.80;2.13;;;23.40;99.90;;;;;;5055021;28;20041;-83
2022/06/10 13:19:42;;;;;;;10.38;2.65;;;23.90;99.90;;;;;;5056006;28;20051;-83
2022/06/10 13:22:19;;;;;;;7.35;2.40;;;24.70;99.10;;;;;;4981426;28;20066;-83
2022/06/10 13:24:54;;;;;;;7.85;2.35;;;25.90;93.80;;;;;;4997660;28;20042;-85
2022/06/10 13:27:27;;;;;;;9.30;2.00;;;26.20;81.20;;;;;;5013882;28;20136;-83